createdAt,value
2018-12-06T00:01:58.960Z,97310.66
2018-12-06T00:04:40.447Z,97296.71
2018-12-06T00:07:13.611Z,97297.10
2018-12-06T00:09:55.458Z,97301.70
2018-12-06T00:12:37.640Z,97313.84
2018-12-06T00:15:27.781Z,97298.75
2018-12-06T00:18:01.063Z,97307.39
2018-12-06T00:20:36.789Z,97292.66
2018-12-06T00:23:18.076Z,97276.90
2018-12-06T00:26:00.066Z,97251.81
2018-12-06T00:28:32.498Z,97246.84
2018-12-06T00:31:13.972Z,97258.27
2018-12-06T00:33:55.874Z,97261.06
2018-12-06T00:36:37.692Z,97254.88
2018-12-06T00:39:09.003Z,97253.86
2018-12-06T00:41:50.685Z,97255.55
2018-12-06T00:44:21.922Z,97251.77
2018-12-06T00:46:55.202Z,97259.41
2018-12-06T00:52:36.936Z,97266.31
2018-12-06T00:55:08.336Z,97279.11
2018-12-06T00:57:41.384Z,97293.29
2018-12-06T01:00:22.480Z,97293.96
2018-12-06T01:02:55.105Z,97293.22
2018-12-06T01:05:37.084Z,97296.84
2018-12-06T01:08:09.708Z,97285.72
2018-12-06T01:10:51.393Z,97273.63
2018-12-06T01:13:26.153Z,97260.02
2018-12-06T01:16:01.156Z,97264.41
2018-12-06T01:18:33.924Z,97276.64
2018-12-06T01:21:19.881Z,97326.06
2018-12-06T01:24:01.861Z,97377.37
2018-12-06T01:26:36.687Z,97383.17
2018-12-06T01:29:11.603Z,97358.40
2018-12-06T01:31:51.940Z,97329.92
2018-12-06T01:34:33.461Z,97363.00
2018-12-06T01:37:06.578Z,97352.73
2018-12-06T01:39:48.393Z,97340.89
2018-12-06T01:42:29.520Z,97316.59
2018-12-06T01:45:04.566Z,97309.78
2018-12-06T01:47:37.159Z,97282.25
2018-12-06T01:50:18.272Z,97298.30
2018-12-06T01:53:00.161Z,97294.03
2018-12-06T01:55:42.143Z,97318.04
2018-12-06T01:58:15.403Z,97315.58
2018-12-06T02:00:56.828Z,97297.66
2018-12-06T02:03:38.817Z,97272.43
2018-12-06T02:06:20.937Z,97265.28
2018-12-06T02:08:53.588Z,97253.22
2018-12-06T02:11:35.535Z,97263.23
2018-12-06T02:14:17.441Z,97257.66
2018-12-06T02:16:59.703Z,97241.66
2018-12-06T02:19:41.615Z,97230.62
2018-12-06T02:22:19.473Z,97221.31
2018-12-06T02:25:01.372Z,97213.67
2018-12-06T02:27:34.647Z,97209.08
2018-12-06T02:30:16.019Z,97210.16
2018-12-06T02:32:47.396Z,97209.45
2018-12-06T02:35:29.409Z,97204.26
2018-12-06T02:38:02.816Z,97221.42
2018-12-06T02:40:44.577Z,97204.25
2018-12-06T02:43:26.611Z,97189.20
2018-12-06T02:46:08.481Z,97196.66
2018-12-06T02:48:41.730Z,97194.26
2018-12-06T02:51:22.916Z,97193.20
2018-12-06T02:54:12.324Z,97200.41
2018-12-06T02:56:53.704Z,97209.97
2018-12-06T02:59:35.753Z,97206.91
2018-12-06T03:02:17.532Z,97209.59
2018-12-06T03:04:48.831Z,97193.12
2018-12-06T03:07:30.757Z,97206.63
2018-12-06T03:10:12.808Z,97214.38
2018-12-06T03:12:43.633Z,97229.52
2018-12-06T03:15:25.641Z,97254.77
2018-12-06T03:18:01.247Z,97278.83
2018-12-06T03:20:36.480Z,97291.38
2018-12-06T03:23:18.183Z,97299.98
2018-12-06T03:25:52.971Z,97298.98
2018-12-06T03:28:25.824Z,97285.21
2018-12-06T03:30:56.986Z,97291.97
2018-12-06T03:33:28.233Z,97275.83
2018-12-06T03:36:10.207Z,97263.31
2018-12-06T03:38:42.552Z,97261.83
2018-12-06T03:41:13.958Z,97287.13
2018-12-06T03:43:44.896Z,97301.08
2018-12-06T03:46:16.180Z,97289.16
2018-12-06T03:48:49.419Z,97282.81
2018-12-06T03:51:19.933Z,97287.31
2018-12-06T03:54:00.996Z,97289.16
2018-12-06T03:56:42.876Z,97290.27
2018-12-06T03:59:24.715Z,97287.91
2018-12-06T04:02:06.091Z,97281.89
2018-12-06T04:04:37.024Z,97282.38
2018-12-06T04:07:19.069Z,97278.73
2018-12-06T04:10:01.659Z,97284.35
2018-12-06T04:12:34.590Z,97292.55
2018-12-06T04:15:09.928Z,97294.40
2018-12-06T04:17:42.384Z,97291.92
2018-12-06T04:20:23.491Z,97294.47
2018-12-06T04:23:04.685Z,97298.28
2018-12-06T04:25:46.564Z,97298.52
2018-12-06T04:28:18.949Z,97298.10
2018-12-06T04:31:00.621Z,97296.17
2018-12-06T04:33:36.236Z,97283.94
2018-12-06T04:36:17.512Z,97275.70
2018-12-06T04:38:52.257Z,97284.27
2018-12-06T04:41:33.667Z,97282.76
2018-12-06T04:44:15.900Z,97281.69
2018-12-06T04:46:47.054Z,97281.63
2018-12-06T04:49:18.306Z,97285.22
2018-12-06T04:52:00.100Z,97282.70
2018-12-06T04:54:35.736Z,97284.59
2018-12-06T04:57:08.272Z,97283.70
2018-12-06T04:59:43.833Z,97289.14
2018-12-06T05:02:25.464Z,97279.51
2018-12-06T05:05:06.594Z,97279.51
2018-12-06T05:07:39.740Z,97277.47
2018-12-06T05:10:20.859Z,97280.98
2018-12-06T05:12:53.988Z,97279.02
2018-12-06T05:15:36.136Z,97279.86
2018-12-06T05:18:11.105Z,97276.84
2018-12-06T05:20:52.185Z,97275.08
2018-12-06T05:23:23.445Z,97281.00
2018-12-06T05:25:56.623Z,97285.36
2018-12-06T05:28:27.775Z,97288.28
2018-12-06T05:31:09.689Z,97284.70
2018-12-06T05:33:50.808Z,97276.86
2018-12-06T05:36:32.712Z,97279.33
2018-12-06T05:39:07.704Z,97281.73
2018-12-06T05:41:49.144Z,97290.47
2018-12-06T05:44:30.246Z,97300.25
2018-12-06T05:47:06.160Z,97297.13
2018-12-06T05:49:47.447Z,97297.09
2018-12-06T05:52:29.338Z,97299.45
2018-12-06T05:55:11.345Z,97308.91
2018-12-06T05:57:45.597Z,97309.89
2018-12-06T06:00:26.863Z,97312.70
2018-12-06T06:03:20.241Z,97316.86
2018-12-06T06:06:01.820Z,97309.58
2018-12-06T06:08:37.755Z,97305.88
2018-12-06T06:11:18.915Z,97299.32
2018-12-06T06:14:00.996Z,97290.91
2018-12-06T06:16:42.941Z,97301.66
2018-12-06T06:19:17.695Z,97305.78
2018-12-06T06:21:59.127Z,97308.95
2018-12-06T06:27:32.187Z,97308.42
2018-12-06T06:30:13.279Z,97313.91
2018-12-06T06:32:54.444Z,97323.59
2018-12-06T06:35:35.536Z,97335.19
2018-12-06T06:38:08.628Z,97327.77
2018-12-06T06:40:50.745Z,97329.76
2018-12-06T06:43:25.635Z,97335.12
2018-12-06T06:46:06.847Z,97337.95
2018-12-06T06:48:40.043Z,97335.43
2018-12-06T06:51:11.315Z,97353.42
2018-12-06T06:53:53.272Z,97355.59
2018-12-06T06:56:24.424Z,97350.92
2018-12-06T06:58:58.537Z,97343.06
2018-12-06T07:01:41.777Z,97338.84
2018-12-06T07:04:23.716Z,97350.26
2018-12-06T07:06:57.098Z,97342.73
2018-12-06T07:09:28.237Z,97347.13
2018-12-06T07:12:10.065Z,97349.71
2018-12-06T07:14:51.844Z,97355.81
2018-12-06T07:17:25.067Z,97361.21
2018-12-06T07:20:07.189Z,97366.19
2018-12-06T07:22:49.209Z,97374.88
2018-12-06T07:25:31.033Z,97374.13
2018-12-06T07:28:06.113Z,97377.97
2018-12-06T07:30:43.570Z,97383.67
2018-12-06T07:33:25.297Z,97377.49
2018-12-06T07:36:06.443Z,97383.48
2018-12-06T07:38:39.716Z,97388.34
2018-12-06T07:41:21.601Z,97393.70
2018-12-06T07:44:03.673Z,97394.52
2018-12-06T07:46:45.577Z,97401.06
2018-12-06T07:49:27.517Z,97404.60
2018-12-06T07:52:08.684Z,97412.39
2018-12-06T07:54:50.790Z,97409.94
2018-12-06T07:57:23.138Z,97416.78
2018-12-06T07:59:54.104Z,97430.66
2018-12-06T08:02:36.018Z,97434.12
2018-12-06T08:05:17.909Z,97437.09
2018-12-06T08:07:50.368Z,97442.30
2018-12-06T08:10:32.486Z,97453.27
2018-12-06T08:13:14.363Z,97456.80
2018-12-06T08:15:56.398Z,97457.73
2018-12-06T08:18:31.852Z,97458.50
2018-12-06T08:21:13.499Z,97461.36
2018-12-06T08:23:55.396Z,97466.91
2018-12-06T08:26:37.488Z,97474.09
2018-12-06T08:29:10.035Z,97476.59
2018-12-06T08:31:51.956Z,97481.03
2018-12-06T08:34:33.683Z,97498.19
2018-12-06T08:37:06.956Z,97504.48
2018-12-06T08:39:48.824Z,97498.98
2018-12-06T08:42:23.553Z,97503.28
2018-12-06T08:45:05.055Z,97500.25
2018-12-06T08:47:38.212Z,97467.92
2018-12-06T08:50:21.200Z,97483.40
2018-12-06T08:53:02.639Z,97498.30
2018-12-06T08:55:44.648Z,97503.57
2018-12-06T08:58:17.155Z,97504.38
2018-12-06T09:00:52.039Z,97502.69
2018-12-06T09:03:33.521Z,97485.27
2018-12-06T09:06:14.665Z,97494.13
2018-12-06T09:08:47.339Z,97510.42
2018-12-06T09:11:29.276Z,97507.13
2018-12-06T09:14:04.968Z,97504.58
2018-12-06T09:16:46.526Z,97511.39
2018-12-06T09:19:28.531Z,97522.98
2018-12-06T09:22:10.417Z,97517.38
2018-12-06T09:24:45.256Z,97527.70
2018-12-06T09:27:18.104Z,97528.95
2018-12-06T09:29:49.011Z,97533.83
2018-12-06T09:32:30.808Z,97531.52
2018-12-06T09:35:11.985Z,97533.09
2018-12-06T09:37:45.251Z,97529.50
2018-12-06T09:40:26.486Z,97527.22
2018-12-06T09:43:08.348Z,97524.95
2018-12-06T09:45:50.172Z,97523.66
2018-12-06T09:48:23.424Z,97524.53
2018-12-06T09:51:05.408Z,97524.17
2018-12-06T09:53:46.515Z,97532.05
2018-12-06T09:56:28.776Z,97537.55
2018-12-06T09:59:01.664Z,97530.64
2018-12-06T10:01:42.741Z,97531.30
2018-12-06T10:04:23.811Z,97532.23
2018-12-06T10:06:56.372Z,97526.96
2018-12-06T10:09:38.371Z,97528.94
2018-12-06T10:12:19.561Z,97532.69
2018-12-06T10:14:54.866Z,97536.81
2018-12-06T10:17:27.845Z,97544.91
2018-12-06T10:19:59.114Z,97543.91
2018-12-06T10:22:40.696Z,97538.95
2018-12-06T10:25:21.764Z,97535.82
2018-12-06T10:27:54.108Z,97534.00
2018-12-06T10:30:26.441Z,97539.56
2018-12-06T10:33:07.568Z,97536.45
2018-12-06T10:35:49.472Z,97542.45
2018-12-06T10:38:21.911Z,97547.31
2018-12-06T10:41:03.623Z,97552.70
2018-12-06T10:43:45.462Z,97536.05
2018-12-06T10:46:23.127Z,97523.11
2018-12-06T10:51:52.883Z,97529.80
2018-12-06T10:54:34.688Z,97527.83
2018-12-06T10:57:07.375Z,97523.44
2018-12-06T10:59:49.212Z,97531.61
2018-12-06T11:03:38.328Z,97527.79
2018-12-06T11:06:19.444Z,97524.56
2018-12-06T11:08:52.701Z,97517.73
2018-12-06T11:11:34.660Z,97512.11
2018-12-06T11:14:16.588Z,97517.86
2018-12-06T11:16:58.460Z,97510.86
2018-12-06T11:19:39.662Z,97503.63
2018-12-06T11:22:21.500Z,97515.09
2018-12-06T11:25:06.181Z,97503.91
2018-12-06T11:27:38.619Z,97509.05
2018-12-06T11:30:19.804Z,97493.19
2018-12-06T11:33:01.700Z,97497.86
2018-12-06T11:35:37.256Z,97496.88
2018-12-06T11:38:12.193Z,97498.05
2018-12-06T11:40:42.893Z,97499.78
2018-12-06T11:43:24.816Z,97497.07
2018-12-06T11:45:56.112Z,97499.47
2018-12-06T11:48:29.311Z,97492.59
2018-12-06T11:53:43.120Z,97496.27
2018-12-06T11:56:24.969Z,97506.44
2018-12-06T11:59:00.528Z,97501.52
2018-12-06T12:01:41.807Z,97504.52
2018-12-06T12:04:23.838Z,97517.34
2018-12-06T12:06:56.975Z,97519.98
2018-12-06T12:09:38.885Z,97515.66
2018-12-06T12:12:20.878Z,97511.80
2018-12-06T12:15:07.955Z,97506.79
2018-12-06T12:17:40.907Z,97509.47
2018-12-06T12:20:22.695Z,97510.58
2018-12-06T12:23:03.829Z,97513.22
2018-12-06T12:25:39.553Z,97514.16
2018-12-06T12:28:12.087Z,97521.50
2018-12-06T12:30:54.064Z,97523.86
2018-12-06T12:33:35.194Z,97509.37
2018-12-06T12:36:10.648Z,97514.06
2018-12-06T12:38:45.687Z,97517.84
2018-12-06T12:41:27.265Z,97520.55
2018-12-06T12:44:09.188Z,97525.08
2018-12-06T12:46:50.738Z,97520.83
2018-12-06T12:49:27.924Z,97524.49
2018-12-06T12:54:41.359Z,97519.68
2018-12-06T12:57:14.569Z,97512.47
2018-12-06T12:59:50.033Z,97514.39
2018-12-06T13:02:31.391Z,97507.05
2018-12-06T13:05:13.544Z,97513.08
2018-12-06T13:07:48.836Z,97516.97
2018-12-06T13:10:23.798Z,97524.30
2018-12-06T13:13:05.297Z,97526.98
2018-12-06T13:15:47.268Z,97515.34
2018-12-06T13:18:22.792Z,97517.70
2018-12-06T13:20:53.593Z,97518.70
2018-12-06T13:23:36.540Z,97513.80
2018-12-06T13:26:18.076Z,97517.89
2018-12-06T13:28:51.299Z,97503.49
2018-12-06T13:31:33.192Z,97510.41
2018-12-06T13:34:15.157Z,97506.80
2018-12-06T13:36:50.976Z,97506.89
2018-12-06T13:39:32.077Z,97499.13
2018-12-06T13:42:13.252Z,97506.89
2018-12-06T13:44:55.181Z,97503.60
2018-12-06T13:47:30.652Z,97509.15
2018-12-06T13:50:12.133Z,97511.50
2018-12-06T13:52:53.222Z,97508.68
2018-12-06T13:55:28.740Z,97514.92
2018-12-06T13:58:01.368Z,97517.73
2018-12-06T14:00:43.205Z,97511.96
2018-12-06T14:03:14.325Z,97515.20
2018-12-06T14:05:47.440Z,97521.49
2018-12-06T14:08:20.174Z,97528.44
2018-12-06T14:11:01.848Z,97530.97
2018-12-06T14:13:36.588Z,97526.39
2018-12-06T14:16:17.872Z,97529.33
2018-12-06T14:18:51.180Z,97530.17
2018-12-06T14:21:33.180Z,97530.27
2018-12-06T14:24:04.448Z,97527.90
2018-12-06T14:26:46.427Z,97528.86
2018-12-06T14:29:17.700Z,97530.89
2018-12-06T14:31:58.802Z,97520.89
2018-12-06T14:34:39.913Z,97521.67
2018-12-06T14:37:13.240Z,97525.00
2018-12-06T14:39:48.606Z,97525.16
2018-12-06T14:42:30.005Z,97530.14
2018-12-06T14:45:12.029Z,97535.96
2018-12-06T14:47:47.680Z,97539.81
2018-12-06T14:50:29.200Z,97534.39
2018-12-06T14:53:00.216Z,97535.02
2018-12-06T14:55:42.100Z,97536.83
2018-12-06T14:58:22.764Z,97533.89
2018-12-06T15:01:04.056Z,97546.11
2018-12-06T15:03:38.799Z,97536.06
2018-12-06T15:06:13.850Z,97540.70
2018-12-06T15:08:46.476Z,97538.24
2018-12-06T15:11:19.787Z,97539.98
2018-12-06T15:13:53.025Z,97546.92
2018-12-06T15:16:35.008Z,97540.89
2018-12-06T15:19:10.632Z,97547.58
2018-12-06T15:21:52.105Z,97547.56
2018-12-06T15:24:27.641Z,97546.91
2018-12-06T15:26:59.211Z,97548.17
2018-12-06T15:29:41.348Z,97563.39
2018-12-06T15:32:23.270Z,97552.63
2018-12-06T15:35:05.789Z,97558.98
2018-12-06T15:37:40.661Z,97557.64
2018-12-06T15:40:21.952Z,97559.26
2018-12-06T15:42:57.612Z,97557.77
2018-12-06T15:45:38.779Z,97562.40
2018-12-06T15:48:14.404Z,97564.75
2018-12-06T15:50:56.023Z,97564.13
2018-12-06T15:53:31.634Z,97570.75
2018-12-06T15:56:13.013Z,97567.82
2018-12-06T15:58:46.111Z,97562.86
2018-12-06T16:01:17.244Z,97562.02
2018-12-06T16:03:58.356Z,97571.86
2018-12-06T16:06:34.027Z,97573.39
2018-12-06T16:09:08.808Z,97570.91
2018-12-06T16:11:50.783Z,97565.97
2018-12-06T16:14:22.040Z,97566.30
2018-12-06T16:17:03.849Z,97569.83
2018-12-06T16:19:45.744Z,97575.72
2018-12-06T16:22:32.849Z,97577.61
2018-12-06T16:25:13.984Z,97578.44
2018-12-06T16:27:47.228Z,97579.27
2018-12-06T16:30:29.202Z,97577.23
2018-12-06T16:33:02.399Z,97580.72
2018-12-06T16:35:44.464Z,97581.65
2018-12-06T16:38:17.604Z,97583.47
2018-12-06T16:40:58.756Z,97586.70
2018-12-06T16:43:39.838Z,97587.38
2018-12-06T16:46:21.013Z,97581.09
2018-12-06T16:48:54.272Z,97587.41
2018-12-06T16:51:35.404Z,97585.83
2018-12-06T16:54:16.541Z,97590.27
2018-12-06T16:59:21.679Z,97601.08
2018-12-06T17:02:03.470Z,97601.95
2018-12-06T17:04:45.502Z,97607.84
2018-12-06T17:07:18.767Z,97593.44
2018-12-06T17:09:59.914Z,97595.28
2018-12-06T17:12:40.964Z,97602.05
2018-12-06T17:15:12.177Z,97602.88
2018-12-06T17:17:45.178Z,97603.09
2018-12-06T17:20:26.241Z,97614.87
2018-12-06T17:23:08.113Z,97621.38
2018-12-06T17:25:49.189Z,97616.19
2018-12-06T17:28:22.534Z,97614.85
2018-12-06T17:31:04.468Z,97615.67
2018-12-06T17:33:37.783Z,97617.52
2018-12-06T17:36:18.710Z,97614.14
2018-12-06T17:38:51.892Z,97615.16
2018-12-06T17:41:33.392Z,97614.71
2018-12-06T17:44:15.432Z,97618.60
2018-12-06T17:46:59.517Z,97618.53
2018-12-06T17:49:41.497Z,97615.77
2018-12-06T17:52:23.421Z,97608.54
2018-12-06T17:55:05.718Z,97604.12
2018-12-06T17:57:41.228Z,97605.68
2018-12-06T18:10:30.440Z,97623.67
2018-12-06T18:13:11.816Z,97625.26
2018-12-06T18:15:44.826Z,97623.73
2018-12-06T18:18:17.713Z,97632.11
2018-12-06T18:20:59.177Z,97640.28
2018-12-06T18:23:41.164Z,97637.30
2018-12-06T18:26:12.386Z,97639.48
2018-12-06T18:28:45.527Z,97640.42
2018-12-06T18:31:27.621Z,97638.27
2018-12-06T18:34:09.001Z,97646.87
2018-12-06T18:36:50.616Z,97644.58
2018-12-06T18:39:32.524Z,97650.35
2018-12-06T18:42:13.759Z,97644.17
2018-12-06T18:44:47.083Z,97642.02
2018-12-06T18:47:20.181Z,97642.64
2018-12-06T18:50:02.187Z,97642.78
2018-12-06T18:52:44.196Z,97648.63
2018-12-06T18:55:20.912Z,97649.96
2018-12-06T18:57:54.393Z,97650.69
2018-12-06T19:00:25.069Z,97647.66
2018-12-06T19:03:07.392Z,97652.48
2018-12-06T19:05:40.146Z,97654.11
2018-12-06T19:08:13.120Z,97657.98
2018-12-06T19:13:27.269Z,97651.59
2018-12-06T19:16:09.320Z,97648.53
2018-12-06T19:18:45.265Z,97649.55
2018-12-06T19:21:27.092Z,97638.52
2018-12-06T19:24:08.187Z,97643.77
2018-12-06T19:26:50.162Z,97643.93
2018-12-06T19:29:24.276Z,97652.97
2018-12-06T19:32:03.380Z,97649.43
2018-12-06T19:34:44.887Z,97651.97
2018-12-06T19:37:47.472Z,97649.55
2018-12-06T19:40:29.231Z,97647.58
2018-12-06T19:43:12.046Z,97650.44
2018-12-06T19:45:53.997Z,97652.67
2018-12-06T19:48:28.968Z,97646.05
2018-12-06T19:51:10.839Z,97646.79
2018-12-06T19:53:53.652Z,97647.44
2018-12-06T19:56:40.337Z,97651.19
2018-12-06T19:59:14.018Z,97648.38
2018-12-06T20:01:55.184Z,97654.20
2018-12-06T20:04:37.278Z,97646.73
2018-12-06T20:07:10.409Z,97637.97
2018-12-06T20:09:52.317Z,97645.45
2018-12-06T20:12:36.192Z,97637.64
2018-12-06T20:15:18.129Z,97632.66
2018-12-06T20:17:51.480Z,97633.81
2018-12-06T20:20:33.380Z,97637.81
2018-12-06T20:23:05.782Z,97634.59
2018-12-06T20:25:47.841Z,97630.76
2018-12-06T20:28:26.572Z,97626.52
2018-12-06T20:31:08.689Z,97624.25
2018-12-06T20:33:39.813Z,97622.66
2018-12-06T20:36:21.925Z,97632.11
2018-12-06T20:38:55.215Z,97631.00
2018-12-06T20:41:37.143Z,97631.63
2018-12-06T20:44:15.192Z,97624.19
2018-12-06T20:46:57.025Z,97618.88
2018-12-06T20:49:36.016Z,97613.52
2018-12-06T20:52:18.380Z,97610.31
2018-12-06T20:55:02.041Z,97604.61
2018-12-06T20:57:37.428Z,97601.91
2018-12-06T21:00:18.944Z,97595.23
2018-12-06T21:03:00.807Z,97600.19
2018-12-06T21:05:42.724Z,97596.70
2018-12-06T21:08:18.052Z,97601.78
2018-12-06T21:10:59.872Z,97596.66
2018-12-06T21:13:41.790Z,97590.89
2018-12-06T21:16:25.394Z,97582.59
2018-12-06T21:19:05.388Z,97584.14
2018-12-06T21:21:36.312Z,97579.28
2018-12-06T21:24:22.064Z,97577.85
2018-12-06T21:26:55.536Z,97576.67
2018-12-06T21:29:37.092Z,97578.34
2018-12-06T21:32:19.040Z,97582.98
2018-12-06T21:35:01.112Z,97587.69
2018-12-06T21:37:36.683Z,97590.03
2018-12-06T21:40:07.891Z,97587.56
2018-12-06T21:42:49.244Z,97587.64
2018-12-06T21:45:31.351Z,97588.56
2018-12-06T21:48:05.010Z,97583.78
2018-12-06T21:50:39.804Z,97582.34
2018-12-06T21:53:21.544Z,97588.75
2018-12-06T21:55:57.040Z,97584.64
2018-12-06T21:58:38.270Z,97573.40
2018-12-06T22:01:18.534Z,97573.48
2018-12-06T22:04:03.370Z,97575.86
2018-12-06T22:06:51.061Z,97574.12
2018-12-06T22:09:38.616Z,97582.54
2018-12-06T22:12:18.499Z,97585.40
2018-12-06T22:15:05.222Z,97587.06
2018-12-06T22:17:48.279Z,97594.24
2018-12-06T22:20:30.051Z,97593.86
2018-12-06T22:23:14.819Z,97587.52
2018-12-06T22:26:01.114Z,97594.47
2018-12-06T22:28:43.207Z,97593.97
2018-12-06T22:31:15.580Z,97595.88
2018-12-06T22:33:57.296Z,97595.77
2018-12-06T22:36:39.304Z,97595.96
2018-12-06T22:39:14.069Z,97592.23
2018-12-06T22:41:55.322Z,97594.00
2018-12-06T22:44:37.360Z,97595.28
2018-12-06T22:47:10.408Z,97587.66
2018-12-06T22:49:52.377Z,97584.69
2018-12-06T22:52:35.559Z,97588.03
2018-12-06T22:55:06.813Z,97585.05
2018-12-06T22:57:39.682Z,97587.23
2018-12-06T23:00:23.692Z,97581.08
2018-12-06T23:03:04.881Z,97576.61
2018-12-06T23:05:36.404Z,97577.84
2018-12-06T23:08:09.417Z,97568.93
2018-12-06T23:10:50.554Z,97561.49
2018-12-06T23:13:32.520Z,97564.51
2018-12-06T23:16:13.616Z,97571.02
2018-12-06T23:18:46.135Z,97572.08
2018-12-06T23:21:28.029Z,97573.89
2018-12-06T23:24:09.229Z,97581.05
2018-12-06T23:26:50.431Z,97583.44
2018-12-06T23:29:23.542Z,97582.73
2018-12-06T23:32:05.392Z,97581.80
2018-12-06T23:34:46.744Z,97579.98
2018-12-06T23:37:17.688Z,97575.92
2018-12-06T23:39:59.752Z,97572.02
2018-12-06T23:42:41.534Z,97572.27
2018-12-06T23:45:23.657Z,97567.89
2018-12-06T23:47:55.984Z,97565.97
2018-12-06T23:50:38.000Z,97562.58
2018-12-06T23:53:19.877Z,97567.01
2018-12-06T23:56:02.135Z,97568.15
2018-12-06T23:58:37.527Z,97571.73
